Time;durP1;ratioP1;P1;durP2;ratioP2;P2;SDS_P1;SDS_P2;PMS_P1;PMS_P2;Temp;Humidity;BMP_temperature;BMP_pressure;BME280_temperature;BME280_humidity;BME280_pressure;Samples;Min_cycle;Max_cycle;Signal;HPM_P1;HPM_P2
2021/04/13 00:02:39;;;;;;;9.27;6.65;;;;;;;0.43;74.90;103067.41;5266428;28;20036;-70
2021/04/13 00:05:14;;;;;;;14.27;7.05;;;;;;;0.45;74.45;103068.22;5264953;28;20024;-69
2021/04/13 00:07:47;;;;;;;11.15;7.20;;;;;;;0.37;74.65;103068.28;5264241;28;20021;-70
2021/04/13 00:10:33;;;;;;;11.18;6.72;;;;;;;0.37;74.54;103070.88;5264251;28;20086;-70
2021/04/13 00:13:05;;;;;;;10.93;7.28;;;;;;;0.29;75.02;103062.31;5264337;28;20029;-70
2021/04/13 00:15:45;;;;;;;11.10;7.25;;;;;;;0.30;75.05;103060.59;5266019;28;20021;-70
2021/04/13 00:18:27;;;;;;;11.38;7.00;;;;;;;0.23;75.63;103062.38;5243300;28;20924;-69
2021/04/13 00:21:04;;;;;;;13.18;6.90;;;;;;;0.20;75.42;103062.41;5264796;28;20470;-70
2021/04/13 00:23:35;;;;;;;11.27;6.70;;;;;;;0.19;75.77;103066.69;5267136;28;20111;-70
2021/04/13 00:26:10;;;;;;;11.95;6.57;;;;;;;0.17;76.35;103071.00;5251785;28;20119;-70
2021/04/13 00:28:46;;;;;;;10.65;6.90;;;;;;;0.16;76.07;103071.88;5263502;28;20238;-69
2021/04/13 00:31:38;;;;;;;11.07;6.88;;;;;;;0.23;76.01;103065.81;5267242;28;20039;-69
2021/04/13 00:34:23;;;;;;;10.48;6.35;;;;;;;0.26;75.67;103067.50;5263718;28;20390;-69
2021/04/13 00:37:10;;;;;;;13.05;7.38;;;;;;;0.23;75.36;103065.81;5265605;28;20413;-70
2021/04/13 00:39:42;;;;;;;13.32;7.20;;;;;;;0.10;76.49;103065.88;5266396;28;20036;-69
2021/04/13 00:42:21;;;;;;;9.25;6.97;;;;;;;0.10;75.98;103069.31;5266596;28;20032;-70
2021/04/13 00:44:56;;;;;;;10.98;6.80;;;;;;;0.13;77.09;103071.88;5268054;28;20032;-70
2021/04/13 00:47:32;;;;;;;12.25;7.03;;;;;;;0.12;76.07;103065.03;5266838;28;20028;-69
2021/04/13 00:50:10;;;;;;;10.55;6.38;;;;;;;0.07;76.51;103071.03;5269069;28;20024;-69
2021/04/13 00:52:49;;;;;;;9.75;6.75;;;;;;;0.02;76.53;103065.91;5268117;28;20474;-69
2021/04/13 00:55:35;;;;;;;14.30;7.22;;;;;;;0.02;77.08;103067.66;5268567;28;20028;-70
2021/04/13 00:58:28;;;;;;;11.27;7.22;;;;;;;0.09;76.75;103072.75;5248401;28;20037;-70
2021/04/13 01:01:08;;;;;;;10.77;7.72;;;;;;;0.07;76.68;103071.91;5267977;28;20033;-70
2021/04/13 01:03:49;;;;;;;13.65;8.45;;;;;;;0.04;76.92;103071.06;5258759;28;20036;-70
2021/04/13 01:06:26;;;;;;;10.15;6.72;;;;;;;-0.06;77.16;103059.97;5270229;28;20094;-70
2021/04/13 01:09:00;;;;;;;10.73;7.35;;;;;;;-0.05;76.83;103069.38;5265693;28;20032;-69
2021/04/13 01:11:39;;;;;;;11.02;7.55;;;;;;;-0.06;77.62;103075.41;5264974;28;20390;-70
2021/04/13 01:14:12;;;;;;;13.80;7.93;;;;;;;-0.17;77.40;103064.31;5267555;28;20098;-70
2021/04/13 01:16:47;;;;;;;11.38;6.88;;;;;;;-0.09;77.37;103073.69;5268962;28;20169;-70
2021/04/13 01:19:50;;;;;;;12.85;7.55;;;;;;;-0.07;77.07;103073.72;5269974;28;20094;-70
2021/04/13 01:22:50;;;;;;;10.77;7.07;;;;;;;-0.12;77.92;103070.28;5269716;28;20033;-69
2021/04/13 01:25:26;;;;;;;10.55;6.95;;;;;;;-0.07;77.60;103073.72;5265792;28;20059;-70
2021/04/13 01:28:08;;;;;;;10.35;7.35;;;;;;;-0.05;77.79;103071.97;5267699;28;20060;-70
2021/04/13 01:30:53;;;;;;;13.50;8.43;;;;;;;-0.05;77.72;103067.66;5268642;28;20485;-70
2021/04/13 01:33:32;;;;;;;12.43;7.97;;;;;;;-0.03;77.93;103068.53;5268483;28;20117;-70
2021/04/13 01:36:25;;;;;;;10.18;6.95;;;;;;;0.01;77.84;103071.94;5267307;28;20059;-70
2021/04/13 01:39:13;;;;;;;13.10;8.70;;;;;;;0.01;77.99;103066.78;5266512;28;20035;-70
2021/04/13 01:41:58;;;;;;;12.63;8.13;;;;;;;-0.03;78.04;103062.53;5268143;28;20024;-70
2021/04/13 01:44:41;;;;;;;11.90;8.30;;;;;;;-0.05;77.85;103074.53;5267595;28;20036;-69
2021/04/13 01:47:17;;;;;;;10.33;8.43;;;;;;;-0.06;78.25;103073.69;5262993;28;20182;-70
2021/04/13 01:49:58;;;;;;;12.18;8.48;;;;;;;-0.03;78.50;103076.25;5268164;28;20359;-70
2021/04/13 01:52:36;;;;;;;13.75;8.60;;;;;;;-0.03;78.58;103072.84;5264196;28;20406;-69
2021/04/13 01:55:12;;;;;;;12.88;8.35;;;;;;;-0.10;78.26;103066.84;5265579;28;20061;-70
2021/04/13 01:58:15;;;;;;;14.23;8.63;;;;;;;-0.03;78.66;103075.41;5267439;28;20539;-70
2021/04/13 02:00:50;;;;;;;13.02;7.80;;;;;;;-0.08;78.71;103079.69;5234679;28;20048;-70
2021/04/13 02:03:32;;;;;;;13.68;8.68;;;;;;;-0.07;78.62;103077.13;5266930;28;20036;-70
2021/04/13 02:06:18;;;;;;;14.50;8.50;;;;;;;-0.06;78.61;103081.41;5267736;28;20104;-70
2021/04/13 02:08:53;;;;;;;12.05;8.65;;;;;;;-0.12;78.46;103083.16;5267606;28;20033;-70
2021/04/13 02:11:35;;;;;;;12.82;8.52;;;;;;;-0.12;78.37;103091.75;5268487;28;20021;-70
2021/04/13 02:14:11;;;;;;;11.88;8.10;;;;;;;-0.13;78.73;103084.03;5266709;28;20028;-70
2021/04/13 02:16:53;;;;;;;12.15;8.75;;;;;;;-0.13;78.67;103091.75;5267267;28;20105;-70
2021/04/13 02:19:25;;;;;;;14.30;8.68;;;;;;;-0.22;78.45;103090.09;5268796;28;20040;-70
2021/04/13 02:22:18;;;;;;;11.65;8.60;;;;;;;-0.15;78.25;103096.03;5263056;28;20112;-70
2021/04/13 02:24:53;;;;;;;14.40;8.55;;;;;;;-0.27;79.40;103097.81;5265649;28;20028;-70
2021/04/13 02:27:29;;;;;;;13.45;8.70;;;;;;;-0.32;78.96;103096.13;5266691;28;20111;-70
2021/04/13 02:30:21;;;;;;;13.27;8.10;;;;;;;-0.35;78.47;103085.81;5265872;28;20035;-70
2021/04/13 02:32:53;;;;;;;15.90;8.43;;;;;;;-0.43;78.63;103091.00;5267333;28;20454;-70
2021/04/13 02:35:29;;;;;;;13.07;9.00;;;;;;;-0.38;79.00;103097.00;5267511;28;20544;-70
2021/04/13 02:38:05;;;;;;;15.00;8.80;;;;;;;-0.41;79.30;103091.00;5264556;28;20123;-70
2021/04/13 02:40:51;;;;;;;11.65;8.40;;;;;;;-0.41;79.59;103091.00;5265869;28;20029;-69
2021/04/13 02:43:28;;;;;;;12.65;8.90;;;;;;;-0.45;79.33;103091.88;5266196;28;20056;-70
2021/04/13 02:46:04;;;;;;;12.25;8.23;;;;;;;-0.44;80.01;103098.75;5265708;28;20035;-70
2021/04/13 02:48:41;;;;;;;14.63;8.65;;;;;;;-0.54;79.92;103087.59;5265300;28;20029;-70
2021/04/13 02:51:15;;;;;;;12.57;8.13;;;;;;;-0.50;80.39;103097.88;5265001;28;20030;-70
2021/04/13 02:53:56;;;;;;;13.98;8.43;;;;;;;-0.50;79.24;103094.44;5264616;28;20043;-70
2021/04/13 02:56:32;;;;;;;12.43;8.43;;;;;;;-0.52;79.83;103096.19;5264862;28;20041;-70
2021/04/13 02:59:17;;;;;;;12.98;8.70;;;;;;;-0.50;79.58;103094.44;5266117;28;20158;-70
2021/04/13 03:02:00;;;;;;;14.07;8.88;;;;;;;-0.43;79.32;103095.28;5266027;28;20035;-70
2021/04/13 03:04:45;;;;;;;12.63;8.65;;;;;;;-0.42;79.32;103095.28;5262651;28;20040;-70
2021/04/13 03:07:21;;;;;;;13.45;8.93;;;;;;;-0.56;79.26;103089.34;5266820;28;20028;-70
2021/04/13 03:10:00;;;;;;;13.10;8.70;;;;;;;-0.52;79.91;103097.03;5267568;28;20120;-72
2021/04/13 03:12:36;;;;;;;15.77;8.60;;;;;;;-0.63;79.90;103093.63;5266612;28;20033;-70
2021/04/13 03:15:12;;;;;;;11.80;8.60;;;;;;;-0.67;79.21;103093.66;5265631;28;20028;-70
2021/04/13 03:17:46;;;;;;;15.85;8.43;;;;;;;-0.69;79.44;103100.50;5266578;28;20379;-69
2021/04/13 03:20:22;;;;;;;11.32;8.27;;;;;;;-0.62;79.89;103095.34;5267416;28;20450;-70
2021/04/13 03:22:58;;;;;;;15.77;8.38;;;;;;;-0.73;80.86;103097.06;5265179;28;20498;-70
2021/04/13 03:25:36;;;;;;;12.98;8.38;;;;;;;-0.74;80.01;103097.94;5265151;28;20067;-70
2021/04/13 03:28:12;;;;;;;13.82;8.77;;;;;;;-0.86;80.08;103096.25;5265776;28;20028;-70
2021/04/13 03:30:43;;;;;;;14.82;9.43;;;;;;;-0.89;79.88;103097.97;5265925;28;20024;-70
2021/04/13 03:33:25;;;;;;;14.68;8.95;;;;;;;-0.88;79.97;103100.50;5263796;28;20029;-70
2021/04/13 03:36:04;;;;;;;13.65;9.50;;;;;;;-0.96;80.38;103101.38;5266113;28;20067;-70
2021/04/13 03:38:38;;;;;;;13.63;8.48;;;;;;;-0.93;81.39;103103.97;5266110;28;20461;-70
2021/04/13 03:41:17;;;;;;;13.85;8.93;;;;;;;-0.83;80.91;103097.97;5264456;28;20024;-70
2021/04/13 03:44:03;;;;;;;14.50;9.13;;;;;;;-0.84;80.58;103102.22;5264949;28;20470;-69
2021/04/13 03:46:38;;;;;;;16.58;8.93;;;;;;;-0.85;81.04;103100.50;5264404;28;20028;-70
2021/04/13 03:49:18;;;;;;;13.77;8.60;;;;;;;-0.88;80.42;103103.09;5265322;28;20081;-70
2021/04/13 03:51:55;;;;;;;13.73;9.65;;;;;;;-0.90;81.79;103099.69;5265529;28;20115;-70
2021/04/13 03:54:32;;;;;;;13.75;9.75;;;;;;;-0.82;81.22;103102.25;5264957;28;20107;-70
2021/04/13 03:57:05;;;;;;;13.00;8.88;;;;;;;-0.83;81.87;103105.69;5266279;28;20032;-70
2021/04/13 03:59:41;;;;;;;14.40;9.10;;;;;;;-0.84;81.59;103107.38;5266056;28;20386;-69
2021/04/13 04:02:12;;;;;;;17.17;8.88;;;;;;;-0.83;81.43;103101.38;5257782;28;20245;-71
2021/04/13 04:04:43;;;;;;;18.52;9.07;;;;;;;-0.85;81.38;103105.66;5238821;28;20065;-70
2021/04/13 04:09:52;;;;;;;15.52;9.32;;;;;;;-0.84;81.62;103101.38;5263745;28;20507;-71
2021/04/13 04:12:30;;;;;;;16.15;9.38;;;;;;;-0.78;82.02;103109.09;5264984;28;20028;-70
2021/04/13 04:15:06;;;;;;;14.10;9.52;;;;;;;-0.78;82.42;103117.66;5266021;28;20031;-70
2021/04/13 04:17:48;;;;;;;14.52;8.60;;;;;;;-0.72;81.62;103106.50;5261195;28;20024;-70
2021/04/13 04:20:31;;;;;;;16.30;10.20;;;;;;;-0.70;82.19;103115.09;5264676;28;20360;-70
2021/04/13 04:23:02;;;;;;;17.87;9.27;;;;;;;-0.77;81.99;103116.81;5263705;28;20028;-70
2021/04/13 04:25:50;;;;;;;16.00;9.32;;;;;;;-0.72;81.77;103119.38;5264887;28;20028;-69
2021/04/13 04:28:34;;;;;;;14.65;9.23;;;;;;;-0.75;81.98;103115.09;5265125;28;20236;-70
2021/04/13 04:31:37;;;;;;;14.95;9.30;;;;;;;-0.69;82.33;103115.94;5263610;28;20094;-69
2021/04/13 04:34:14;;;;;;;16.73;9.57;;;;;;;-0.71;82.57;103125.41;5244002;28;20036;-70
2021/04/13 04:36:51;;;;;;;12.93;9.05;;;;;;;-0.73;81.73;103122.81;5264981;28;20056;-70
2021/04/13 04:39:33;;;;;;;13.30;8.48;;;;;;;-0.72;82.03;103129.66;5264803;28;20072;-70
2021/04/13 04:42:30;;;;;;;15.65;9.23;;;;;;;-0.65;81.61;103123.66;5263155;28;20033;-70
2021/04/13 04:45:33;;;;;;;16.13;9.18;;;;;;;-0.68;81.92;103131.41;5263735;28;20425;-70
2021/04/13 04:48:26;;;;;;;20.00;9.40;;;;;;;-0.62;81.90;103133.09;5267152;28;20041;-70
2021/04/13 04:51:18;;;;;;;15.43;9.43;;;;;;;-0.65;81.81;103130.53;5265522;28;20033;-69
2021/04/13 04:53:49;;;;;;;16.85;8.95;;;;;;;-0.77;82.14;103137.41;5265128;28;20440;-70
2021/04/13 04:56:20;;;;;;;12.73;8.60;;;;;;;-0.83;81.62;103128.84;5263541;28;20024;-70
2021/04/13 04:58:52;;;;;;;11.48;7.68;;;;;;;-0.83;81.20;103131.41;5266367;28;20041;-70
2021/04/13 05:01:23;;;;;;;14.82;8.90;;;;;;;-0.81;81.74;103134.81;5264744;28;20028;-70
2021/04/13 05:03:55;;;;;;;17.38;9.18;;;;;;;-0.83;81.97;103142.56;5261597;28;20551;-70
2021/04/13 05:06:26;;;;;;;12.02;8.73;;;;;;;-0.86;81.54;103139.13;5260909;28;20032;-70
2021/04/13 05:08:58;;;;;;;16.00;9.70;;;;;;;-0.90;81.41;103145.13;5263603;28;20529;-70
2021/04/13 05:11:29;;;;;;;15.98;8.75;;;;;;;-0.89;82.23;103152.00;5263593;28;20411;-70
2021/04/13 05:14:00;;;;;;;16.83;9.70;;;;;;;-0.90;81.71;103148.56;5263498;28;20446;-69
2021/04/13 05:16:32;;;;;;;16.73;9.60;;;;;;;-0.87;82.62;103148.56;5259181;28;20124;-69
2021/04/13 05:19:04;;;;;;;13.88;8.80;;;;;;;-0.82;81.99;103154.56;5264338;28;20078;-69
2021/04/13 05:21:35;;;;;;;16.05;9.73;;;;;;;-0.78;82.17;103160.56;5262931;28;20442;-69
2021/04/13 05:24:09;;;;;;;15.70;10.00;;;;;;;-0.81;81.89;103158.00;5264842;28;20035;-71
2021/04/13 05:26:41;;;;;;;16.13;9.55;;;;;;;-0.83;82.50;103159.72;5263367;28;20020;-71
2021/04/13 05:29:12;;;;;;;16.50;9.60;;;;;;;-0.81;82.28;103158.84;5267604;28;20040;-69
2021/04/13 05:31:43;;;;;;;16.92;9.35;;;;;;;-0.79;82.47;103164.88;5269070;28;20470;-70
2021/04/13 05:34:14;;;;;;;14.15;9.43;;;;;;;-0.73;82.23;103169.13;5265355;28;20055;-70
2021/04/13 05:36:50;;;;;;;19.05;9.32;;;;;;;-0.70;82.29;103173.44;5268788;28;20036;-70
2021/04/13 05:39:22;;;;;;;15.98;9.27;;;;;;;-0.65;82.97;103179.44;5269139;28;20040;-70
2021/04/13 05:41:55;;;;;;;17.98;9.25;;;;;;;-0.62;82.72;103177.72;5252975;28;20477;-70
2021/04/13 05:44:27;;;;;;;16.73;9.80;;;;;;;-0.58;82.41;103174.28;5267434;28;20505;-70
2021/04/13 05:46:59;;;;;;;14.10;9.27;;;;;;;-0.56;82.13;103182.00;5269759;28;20020;-70
2021/04/13 05:49:31;;;;;;;19.63;10.27;;;;;;;-0.51;82.70;103188.84;5265582;28;20032;-70
2021/04/13 05:52:02;;;;;;;15.80;9.27;;;;;;;-0.48;82.63;103194.88;5268321;28;20021;-70
2021/04/13 05:54:33;;;;;;;14.73;9.35;;;;;;;-0.45;82.44;103188.00;5266526;28;20040;-70
2021/04/13 05:57:05;;;;;;;15.27;9.43;;;;;;;-0.38;82.42;103197.44;5266935;28;20025;-71
2021/04/13 05:59:37;;;;;;;14.52;9.45;;;;;;;-0.51;82.21;103182.84;5267447;28;20040;-70
2021/04/13 06:02:13;;;;;;;17.27;9.68;;;;;;;-0.32;82.58;103196.56;5266317;28;20025;-70
2021/04/13 06:04:45;;;;;;;19.05;10.18;;;;;;;-0.32;82.95;103202.56;5263576;28;20728;-70
2021/04/13 06:07:16;;;;;;;16.85;10.55;;;;;;;-0.26;83.63;103204.31;5268146;28;20044;-70
2021/04/13 06:09:47;;;;;;;18.67;9.95;;;;;;;-0.19;83.77;103200.84;5266043;28;20024;-70
2021/04/13 06:12:21;;;;;;;17.17;9.02;;;;;;;-0.12;84.65;103202.53;5260259;28;20119;-69
2021/04/13 06:14:53;;;;;;;16.42;9.80;;;;;;;0.01;83.95;103211.09;5253657;28;20031;-69
2021/04/13 06:17:25;;;;;;;13.97;9.83;;;;;;;0.09;84.47;103213.66;5269862;28;20032;-69
2021/04/13 06:19:56;;;;;;;16.92;10.13;;;;;;;0.16;84.41;103218.78;5270185;28;20040;-69
2021/04/13 06:22:27;;;;;;;17.67;10.02;;;;;;;0.26;84.21;103222.19;5259402;28;20024;-70
2021/04/13 06:24:59;;;;;;;16.05;9.60;;;;;;;0.38;83.91;103221.28;5268531;28;20031;-72
2021/04/13 06:27:30;;;;;;;17.45;9.52;;;;;;;0.54;84.13;103225.53;5270654;28;20513;-69
2021/04/13 06:30:02;;;;;;;18.45;9.45;;;;;;;0.66;84.04;103237.50;5264501;28;20082;-70
2021/04/13 06:32:34;;;;;;;16.65;9.30;;;;;;;0.76;83.64;103233.13;5266382;28;20020;-70
2021/04/13 06:35:06;;;;;;;15.75;9.68;;;;;;;0.92;83.59;103240.78;5266380;28;20062;-70
2021/04/13 06:37:41;;;;;;;15.63;9.10;;;;;;;1.05;83.69;103241.56;5265297;28;20410;-70
2021/04/13 06:40:52;;;;;;;14.50;9.15;;;;;;;1.21;83.14;103248.34;5265360;28;20048;-70
2021/04/13 06:44:15;;;;;;;14.35;9.13;;;;;;;1.41;82.34;103244.75;5233421;28;20044;-70
2021/04/13 06:47:15;;;;;;;19.25;9.50;;;;;;;1.60;81.86;103255.81;5166080;28;20045;-70
2021/04/13 06:49:56;;;;;;;14.48;8.23;;;;;;;1.65;82.15;103260.03;5168239;28;20042;-70
2021/04/13 06:52:51;;;;;;;15.45;8.75;;;;;;;1.92;81.93;103255.50;5250512;28;20033;-70
2021/04/13 06:55:41;;;;;;;13.93;7.75;;;;;;;2.04;81.03;103254.50;5266456;28;20059;-70
2021/04/13 06:58:24;;;;;;;16.58;7.55;;;;;;;2.20;81.10;103256.06;5264689;28;20036;-70
2021/04/13 07:01:14;;;;;;;16.10;6.75;;;;;;;2.38;80.21;103257.56;5265775;28;20063;-70
2021/04/13 07:04:10;;;;;;;11.48;5.97;;;;;;;2.50;80.09;103260.03;5248329;28;20029;-70
2021/04/13 07:06:59;;;;;;;13.20;6.25;;;;;;;2.66;78.74;103258.09;5263938;28;20025;-70
2021/04/13 07:09:37;;;;;;;13.23;5.20;;;;;;;2.80;78.27;103265.66;5263145;28;20032;-70
2021/04/13 07:12:18;;;;;;;13.63;4.63;;;;;;;2.89;77.09;103258.66;5263236;28;20082;-70
2021/04/13 07:15:17;;;;;;;15.45;5.10;;;;;;;3.15;77.71;103262.59;5261868;28;20492;-70
2021/04/13 07:18:03;;;;;;;16.75;5.07;;;;;;;3.22;75.98;103261.63;5265440;28;20036;-70
2021/04/13 07:20:43;;;;;;;14.30;4.95;;;;;;;3.36;75.90;103259.66;5258841;28;20391;-70
2021/04/13 07:23:22;;;;;;;17.15;6.63;;;;;;;3.41;76.35;103263.06;5263841;28;20032;-70
2021/04/13 07:26:04;;;;;;;15.15;5.18;;;;;;;3.64;76.11;103267.00;5264013;28;20478;-70
2021/04/13 07:28:52;;;;;;;10.85;4.70;;;;;;;3.71;75.54;103262.56;5264300;28;20508;-70
2021/04/13 07:31:53;;;;;;;10.88;4.65;;;;;;;3.81;74.83;103264.97;5265187;28;20056;-70
2021/04/13 07:34:25;;;;;;;11.95;4.68;;;;;;;3.94;74.05;103263.03;5265073;28;20043;-70
2021/04/13 07:37:16;;;;;;;14.18;4.85;;;;;;;4.08;74.60;103262.75;5265003;28;20082;-70
2021/04/13 07:39:52;;;;;;;11.98;4.22;;;;;;;4.17;72.58;103257.41;5266335;28;20044;-70
2021/04/13 07:42:31;;;;;;;10.98;3.55;;;;;;;4.29;71.61;103257.16;5263935;28;20108;-70
2021/04/13 07:45:31;;;;;;;12.02;4.53;;;;;;;4.46;72.42;103262.00;5262692;28;20194;-70
2021/04/13 07:48:02;;;;;;;11.50;4.90;;;;;;;4.55;71.62;103267.03;5263249;28;20402;-70
2021/04/13 07:50:49;;;;;;;8.97;3.27;;;;;;;4.61;70.69;103258.25;5264701;28;20025;-70
2021/04/13 07:53:39;;;;;;;10.70;3.78;;;;;;;4.85;70.58;103264.66;5264415;28;20298;-70
2021/04/13 07:56:17;;;;;;;20.00;3.70;;;;;;;5.01;68.96;103262.59;5263895;28;20058;-70
2021/04/13 07:59:07;;;;;;;10.95;3.67;;;;;;;5.15;69.53;103270.03;5263454;28;20029;-70
2021/04/13 08:01:38;;;;;;;7.13;3.17;;;;;;;5.22;68.01;103266.41;5260531;28;20040;-70
2021/04/13 08:04:09;;;;;;;9.15;4.03;;;;;;;5.33;68.47;103254.00;5265184;28;20029;-70
2021/04/13 08:06:47;;;;;;;12.18;3.47;;;;;;;5.55;67.45;103270.81;5262813;28;20032;-70
2021/04/13 08:09:32;;;;;;;6.60;2.45;;;;;;;5.64;66.38;103268.84;5263219;28;20025;-70
2021/04/13 08:12:20;;;;;;;5.32;1.70;;;;;;;5.76;65.38;103268.56;5264119;28;20047;-70
2021/04/13 08:14:54;;;;;;;5.32;1.42;;;;;;;5.93;63.14;103273.34;5261694;28;20039;-70
2021/04/13 08:17:54;;;;;;;7.65;1.73;;;;;;;5.97;63.79;103274.97;5261046;28;20029;-70
2021/04/13 08:20:29;;;;;;;6.13;1.85;;;;;;;5.82;60.89;103273.59;5261299;28;20129;-69
2021/04/13 08:23:06;;;;;;;4.70;1.00;;;;;;;5.96;61.57;103279.34;5260661;28;20514;-69
2021/04/13 08:25:46;;;;;;;8.55;3.38;;;;;;;6.18;63.43;103281.38;5262699;28;20114;-72
2021/04/13 08:28:36;;;;;;;7.25;2.08;;;;;;;6.29;61.42;103279.31;5260990;28;20028;-70
2021/04/13 08:34:37;;;;;;;6.97;1.88;;;;;;;6.49;61.57;103281.38;5259102;28;20119;-69
2021/04/13 08:37:22;;;;;;;8.40;2.30;;;;;;;6.63;60.85;103273.13;5253598;28;20053;-69
2021/04/13 08:40:23;;;;;;;6.22;1.63;;;;;;;6.78;60.46;103283.97;5264961;28;20056;-70
2021/04/13 08:43:25;;;;;;;6.93;1.70;;;;;;;6.85;60.00;103283.78;5258242;28;20028;-69
2021/04/13 08:46:21;;;;;;;6.38;1.92;;;;;;;6.74;59.94;103274.56;5257843;28;20083;-71
2021/04/13 08:49:14;;;;;;;7.85;1.90;;;;;;;6.67;60.01;103283.44;5262464;28;20032;-69
2021/04/13 08:52:09;;;;;;;6.63;1.20;;;;;;;6.88;60.22;103283.69;5256725;28;20094;-69
2021/04/13 08:54:46;;;;;;;5.40;1.38;;;;;;;6.97;59.11;103273.84;5258981;28;20035;-71
2021/04/13 08:57:18;;;;;;;5.90;1.17;;;;;;;6.89;57.15;103275.81;5259068;28;20048;-70
2021/04/13 08:59:52;;;;;;;5.77;1.20;;;;;;;7.05;55.84;103281.44;5260137;28;20024;-71
2021/04/13 09:02:34;;;;;;;4.10;1.35;;;;;;;7.25;57.09;103279.03;5263233;28;20664;-69
2021/04/13 09:05:13;;;;;;;7.32;1.85;;;;;;;7.45;56.55;103281.00;5267720;28;20082;-70
2021/04/13 09:07:47;;;;;;;7.75;2.08;;;;;;;7.34;56.59;103280.50;5266835;28;20040;-69
2021/04/13 09:10:49;;;;;;;10.80;2.22;;;;;;;7.49;56.97;103277.38;5269243;28;20047;-69
2021/04/13 09:13:23;;;;;;;6.10;1.40;;;;;;;7.43;55.35;103277.59;5263110;28;20029;-69
2021/04/13 09:16:18;;;;;;;8.02;1.40;;;;;;;7.54;55.65;103280.72;5264552;28;20024;-69
2021/04/13 09:18:55;;;;;;;5.28;1.30;;;;;;;7.46;54.94;103274.91;5263577;28;20106;-70
2021/04/13 09:21:47;;;;;;;5.50;1.20;;;;;;;7.63;56.16;103276.94;5265479;28;20028;-69
2021/04/13 09:24:42;;;;;;;8.25;1.40;;;;;;;7.95;56.54;103274.97;5257338;28;20397;-69
2021/04/13 09:27:32;;;;;;;6.60;1.33;;;;;;;8.14;53.59;103267.34;5262084;28;20028;-69
2021/04/13 09:30:19;;;;;;;5.18;1.05;;;;;;;8.37;51.99;103270.03;5249016;28;20028;-69
2021/04/13 09:33:06;;;;;;;5.97;1.35;;;;;;;8.61;51.21;103268.28;5261382;28;20107;-69
2021/04/13 09:36:02;;;;;;;5.35;1.20;;;;;;;8.75;50.29;103272.94;5263774;28;20032;-69
2021/04/13 09:39:01;;;;;;;5.90;1.02;;;;;;;8.93;51.79;103269.63;5263716;28;20044;-69
2021/04/13 09:42:10;;;;;;;11.05;1.70;;;;;;;9.08;51.60;103262.94;5264107;28;20032;-68
2021/04/13 09:45:00;;;;;;;10.05;1.75;;;;;;;9.15;51.73;103266.19;5262934;28;20098;-69
2021/04/13 09:47:49;;;;;;;5.82;1.55;;;;;;;9.22;49.56;103267.63;5265271;28;20564;-68
2021/04/13 09:50:21;;;;;;;3.40;1.05;;;;;;;9.02;46.91;103263.22;5265738;28;20108;-69
2021/04/13 09:53:22;;;;;;;4.30;1.30;;;;;;;9.43;48.31;103263.28;5264113;28;20028;-69
2021/04/13 09:56:23;;;;;;;6.05;1.42;;;;;;;9.55;49.02;103259.34;5265338;28;20029;-69
2021/04/13 09:59:20;;;;;;;6.13;1.27;;;;;;;9.55;46.45;103254.09;5265344;28;20016;-70
2021/04/13 10:02:04;;;;;;;6.97;1.52;;;;;;;9.80;48.18;103251.28;5265723;28;20025;-70
2021/04/13 10:05:07;;;;;;;;;;;;;;;10.14;46.34;103261.13;5267215;28;20033;-69
2021/04/13 10:07:51;;;;;;;5.68;1.48;;;;;;;10.06;45.16;103253.59;5211215;28;19923;-70
2021/04/13 10:10:36;;;;;;;4.15;1.38;;;;;;;10.22;45.93;103252.00;5265430;28;20028;-69
2021/04/13 10:13:51;;;;;;;2.90;1.00;;;;;;;10.37;46.48;103254.88;5265845;28;20094;-68
2021/04/13 10:16:41;;;;;;;9.35;1.25;;;;;;;10.13;44.45;103257.66;5264719;28;20473;-68
2021/04/13 10:19:42;;;;;;;5.63;1.10;;;;;;;9.94;45.35;103257.63;5264256;28;20037;-70
2021/04/13 10:22:47;;;;;;;2.80;1.10;;;;;;;9.69;42.06;103256.97;5266622;28;20394;-68
2021/04/13 10:25:27;;;;;;;4.35;0.88;;;;;;;9.79;39.54;103241.72;5256291;28;20423;-69
2021/04/13 10:28:04;;;;;;;5.10;1.42;;;;;;;9.90;42.11;103245.56;5260872;28;20045;-69
2021/04/13 10:31:21;;;;;;;4.32;0.90;;;;;;;10.11;41.02;103237.69;5265449;28;20486;-68
2021/04/13 10:34:07;;;;;;;4.45;1.10;;;;;;;10.41;41.59;103232.84;5259683;28;20035;-69
2021/04/13 10:37:02;;;;;;;3.85;0.90;;;;;;;10.40;38.98;103241.66;5265092;28;20497;-68
2021/04/13 10:39:58;;;;;;;4.53;1.30;;;;;;;10.60;41.00;103223.22;5262722;28;20120;-69
2021/04/13 10:43:10;;;;;;;4.18;1.00;;;;;;;10.75;41.29;103226.88;5255109;28;20433;-68
2021/04/13 10:46:05;;;;;;;7.30;0.95;;;;;;;10.54;39.77;103234.00;5265486;28;20035;-69
2021/04/13 10:49:02;;;;;;;4.40;1.00;;;;;;;10.44;41.15;103230.94;5258402;28;20033;-70
2021/04/13 10:52:05;;;;;;;3.20;1.15;;;;;;;10.49;40.95;103217.63;5257916;28;20050;-69
2021/04/13 10:55:30;;;;;;;2.97;1.13;;;;;;;10.72;40.53;103208.69;5260825;28;20085;-69
2021/04/13 10:58:50;;;;;;;5.68;1.00;;;;;;;10.83;40.62;103211.63;5166751;28;20452;-69
2021/04/13 11:01:39;;;;;;;2.80;0.90;;;;;;;10.85;38.85;103203.72;5243540;28;20490;-69
2021/04/13 11:04:44;;;;;;;5.00;1.33;;;;;;;11.00;40.64;103208.22;5264116;28;20047;-69
2021/04/13 11:08:11;;;;;;;3.42;0.93;;;;;;;11.30;39.77;103210.25;5265764;28;20491;-69
2021/04/13 11:11:01;;;;;;;2.55;1.10;;;;;;;11.00;38.15;103210.00;5263522;28;20470;-69
2021/04/13 11:13:47;;;;;;;4.75;1.30;;;;;;;10.83;38.81;103203.75;5261876;28;20442;-69
2021/04/13 11:16:43;;;;;;;3.45;1.20;;;;;;;10.53;38.53;103208.72;5262347;28;20071;-69
2021/04/13 11:19:19;;;;;;;6.03;1.58;;;;;;;10.20;39.15;103211.94;5262996;28;20036;-69
2021/04/13 11:22:00;;;;;;;5.93;1.48;;;;;;;10.05;37.79;103214.41;5265018;28;20032;-69
2021/04/13 11:24:56;;;;;;;4.72;0.93;;;;;;;10.21;36.81;103204.91;5257591;28;20021;-69
2021/04/13 11:27:49;;;;;;;6.15;1.10;;;;;;;10.66;38.02;103193.25;5261820;28;20040;-69
2021/04/13 11:31:04;;;;;;;3.00;0.90;;;;;;;10.80;37.67;103189.97;5264095;28;20107;-69
2021/04/13 11:33:45;;;;;;;3.58;1.05;;;;;;;11.05;38.79;103185.22;5266336;28;20071;-69
2021/04/13 11:36:29;;;;;;;3.25;1.00;;;;;;;11.27;37.84;103185.00;5260700;28;20106;-69
2021/04/13 11:39:19;;;;;;;3.60;1.13;;;;;;;11.42;36.37;103184.22;5260918;28;20052;-69
2021/04/13 11:42:15;;;;;;;2.63;0.88;;;;;;;11.50;36.63;103177.72;5263247;28;20040;-69
2021/04/13 11:45:24;;;;;;;4.10;1.13;;;;;;;11.69;36.56;103181.94;5240852;28;20025;-69
2021/04/13 11:48:20;;;;;;;4.50;1.00;;;;;;;11.83;37.81;103185.63;5256835;28;20032;-69
2021/04/13 11:51:29;;;;;;;3.97;1.00;;;;;;;11.69;37.56;103183.72;5262035;28;20544;-69
2021/04/13 11:54:38;;;;;;;2.72;0.80;;;;;;;11.61;34.84;103191.16;5262632;28;20029;-69
2021/04/13 11:57:25;;;;;;;3.63;1.10;;;;;;;11.27;33.58;103187.63;5253470;28;20024;-69
2021/04/13 12:00:18;;;;;;;3.50;1.20;;;;;;;11.04;35.60;103187.94;5261036;28;20039;-69
2021/04/13 12:03:20;;;;;;;2.30;1.08;;;;;;;11.08;35.83;103178.97;5262342;28;20539;-69
2021/04/13 12:05:57;;;;;;;4.45;0.90;;;;;;;11.11;34.97;103179.69;5263239;28;20041;-69
2021/04/13 12:08:28;;;;;;;3.15;1.05;;;;;;;11.22;34.34;103178.31;5239780;28;20024;-69
2021/04/13 12:11:01;;;;;;;6.87;1.10;;;;;;;11.67;35.81;103172.47;5258797;28;20024;-69
2021/04/13 12:13:40;;;;;;;4.10;1.00;;;;;;;11.75;35.36;103162.41;5261132;28;20352;-69
2021/04/13 12:16:16;;;;;;;3.03;1.33;;;;;;;12.11;35.18;103171.91;5264028;28;20042;-69
2021/04/13 12:19:06;;;;;;;3.28;1.00;;;;;;;12.10;34.25;103171.06;5260506;28;20082;-69
2021/04/13 12:21:49;;;;;;;4.50;1.17;;;;;;;12.01;33.12;103165.44;5260719;28;20024;-69
2021/04/13 12:24:39;;;;;;;4.03;0.95;;;;;;;12.01;34.82;103170.69;5258965;28;20029;-69
2021/04/13 12:27:25;;;;;;;4.43;0.95;;;;;;;11.69;35.45;103173.22;5266401;28;20035;-69
2021/04/13 12:30:32;;;;;;;5.40;1.30;;;;;;;11.52;35.01;103165.41;5258894;28;20082;-69
2021/04/13 12:33:03;;;;;;;3.15;1.20;;;;;;;10.88;35.08;103162.44;5215588;28;20131;-69
2021/04/13 12:35:48;;;;;;;3.40;1.02;;;;;;;10.85;37.08;103167.84;5260637;28;20029;-69
2021/04/13 12:38:41;;;;;;;4.07;1.27;;;;;;;10.64;37.39;103174.09;5259685;28;20041;-69
2021/04/13 12:41:31;;;;;;;2.50;1.08;;;;;;;10.39;36.41;103172.66;5259864;28;20490;-69
2021/04/13 12:44:17;;;;;;;2.90;1.20;;;;;;;10.37;38.71;103177.13;5243544;28;20377;-69
2021/04/13 12:46:55;;;;;;;2.45;1.02;;;;;;;10.17;36.71;103178.00;5259345;28;20024;-70